Time;durP1;ratioP1;P1;durP2;ratioP2;P2;SDS_P1;SDS_P2;PMS_P1;PMS_P2;Temp;Humidity;BMP_temperature;BMP_pressure;BME280_temperature;BME280_humidity;BME280_pressure;Samples;Min_cycle;Max_cycle;Signal;HPM_P1;HPM_P2
2023/12/15 00:01:22;;;;;;;12.50;6.53;;;;;;;5.25;100.00;102643.81;4993496;28;20042;-90
2023/12/15 00:03:48;;;;;;;12.95;6.60;;;;;;;5.27;100.00;102650.78;4963986;28;20029;-91
2023/12/15 00:06:13;;;;;;;13.65;6.90;;;;;;;5.28;100.00;102644.78;4984047;28;20069;-92
2023/12/15 00:08:39;;;;;;;14.25;6.75;;;;;;;5.28;100.00;102649.94;4995397;28;20026;-91
2023/12/15 00:11:04;;;;;;;13.38;6.63;;;;;;;5.29;100.00;102655.94;5003537;28;20331;-91
2023/12/15 00:13:29;;;;;;;12.05;6.63;;;;;;;5.29;100.00;102658.53;5000000;28;20057;-92
2023/12/15 00:15:55;;;;;;;11.02;6.80;;;;;;;5.30;100.00;102663.72;4998642;28;20056;-90
2023/12/15 00:18:21;;;;;;;12.45;6.82;;;;;;;5.31;100.00;102674.94;4989743;28;20018;-92
2023/12/15 00:20:47;;;;;;;10.60;6.57;;;;;;;5.31;100.00;102683.53;5002435;28;20462;-90
2023/12/15 00:23:12;;;;;;;12.25;7.10;;;;;;;5.32;100.00;102676.69;5000863;28;20519;-91
2023/12/15 00:25:37;;;;;;;14.38;7.15;;;;;;;5.35;100.00;102681.03;4988659;28;20060;-91
2023/12/15 00:28:03;;;;;;;12.52;7.32;;;;;;;5.35;100.00;102696.53;4994638;28;20022;-91
2023/12/15 00:30:28;;;;;;;15.50;7.28;;;;;;;5.35;100.00;102697.41;4995547;28;20029;-90
2023/12/15 00:32:53;;;;;;;12.48;6.93;;;;;;;5.36;100.00;102698.28;5000154;28;20033;-93
2023/12/15 00:35:19;;;;;;;14.23;8.37;;;;;;;5.36;100.00;102685.38;5000207;28;20030;-90
2023/12/15 00:37:44;;;;;;;15.63;7.65;;;;;;;5.35;100.00;102683.63;4997693;28;20021;-92
2023/12/15 00:40:10;;;;;;;16.77;8.50;;;;;;;5.36;100.00;102682.78;4990161;28;20096;-91
2023/12/15 00:42:36;;;;;;;12.82;7.90;;;;;;;5.35;100.00;102681.03;4997467;28;20438;-92
2023/12/15 00:45:01;;;;;;;14.32;7.82;;;;;;;5.32;100.00;102677.53;4996786;28;20084;-90
2023/12/15 00:47:27;;;;;;;16.05;8.65;;;;;;;5.35;100.00;102692.25;4997949;28;20496;-91
2023/12/15 00:49:52;;;;;;;17.63;8.77;;;;;;;5.34;100.00;102679.28;4984013;28;20030;-91
2023/12/15 00:52:18;;;;;;;15.02;8.63;;;;;;;5.33;100.00;102673.28;4999930;28;20393;-91
2023/12/15 00:54:43;;;;;;;14.73;8.70;;;;;;;5.34;100.00;102679.28;5006197;28;20026;-91
2023/12/15 00:57:08;;;;;;;14.70;8.82;;;;;;;5.32;100.00;102680.13;5014472;28;20068;-91
2023/12/15 00:59:34;;;;;;;17.13;9.15;;;;;;;5.34;100.00;102693.09;5002028;28;20034;-91
2023/12/15 01:01:59;;;;;;;13.50;8.32;;;;;;;5.34;100.00;102697.34;5000564;28;20037;-90
2023/12/15 01:04:24;;;;;;;15.00;8.85;;;;;;;5.33;100.00;102691.34;5009344;28;20033;-91
2023/12/15 01:06:50;;;;;;;14.27;8.75;;;;;;;5.34;100.00;102692.19;5006845;28;20180;-89
2023/12/15 01:09:15;;;;;;;14.75;8.68;;;;;;;5.36;100.00;102700.84;5006645;28;20112;-91
2023/12/15 01:11:40;;;;;;;15.52;9.23;;;;;;;5.37;100.00;102707.75;5012807;28;20131;-91
2023/12/15 01:14:06;;;;;;;17.13;9.35;;;;;;;5.36;100.00;102708.59;4999879;28;20620;-91
2023/12/15 01:16:31;;;;;;;13.95;8.75;;;;;;;5.37;100.00;102706.06;5007975;28;20035;-90
2023/12/15 01:18:57;;;;;;;16.38;8.70;;;;;;;5.38;100.00;102705.22;5002979;28;20022;-92
2023/12/15 01:21:22;;;;;;;18.45;9.82;;;;;;;5.38;100.00;102702.63;4986285;28;20025;-91
2023/12/15 01:23:48;;;;;;;21.30;10.00;;;;;;;5.41;100.00;102712.19;5012771;28;20026;-91
2023/12/15 01:26:13;;;;;;;17.92;9.40;;;;;;;5.40;100.00;102707.84;4994898;28;20018;-92
2023/12/15 01:28:39;;;;;;;18.85;10.30;;;;;;;5.42;100.00;102713.94;5008338;28;20125;-91
2023/12/15 01:31:04;;;;;;;19.33;10.13;;;;;;;5.43;100.00;102715.69;4994920;28;20021;-91
2023/12/15 01:33:30;;;;;;;18.05;9.95;;;;;;;5.43;100.00;102723.44;5001166;28;20026;-90
2023/12/15 01:35:56;;;;;;;18.70;10.27;;;;;;;5.44;100.00;102727.75;4996622;28;20076;-90
2023/12/15 01:38:21;;;;;;;20.42;10.20;;;;;;;5.43;100.00;102726.88;5012258;28;20030;-92
2023/12/15 01:40:47;;;;;;;20.70;9.73;;;;;;;5.44;100.00;102726.03;5011870;28;20024;-91
2023/12/15 01:43:12;;;;;;;18.30;10.10;;;;;;;5.46;100.00;102731.25;5000047;28;20029;-92
2023/12/15 01:45:38;;;;;;;17.73;9.70;;;;;;;5.46;100.00;102726.09;4997749;28;20022;-92
2023/12/15 01:48:04;;;;;;;16.67;9.50;;;;;;;5.46;100.00;102731.25;5016533;28;20022;-91
2023/12/15 01:50:30;;;;;;;18.10;9.70;;;;;;;5.47;100.00;102732.97;5007161;28;20072;-92
2023/12/15 01:52:55;;;;;;;16.88;9.80;;;;;;;5.49;100.00;102740.78;4998694;28;20053;-90
2023/12/15 01:55:20;;;;;;;17.63;9.95;;;;;;;5.48;100.00;102737.31;5012549;28;20032;-91
2023/12/15 01:57:46;;;;;;;18.30;9.40;;;;;;;5.50;100.00;102743.38;5012502;28;20032;-93
2023/12/15 02:00:12;;;;;;;18.83;10.00;;;;;;;5.51;100.00;102744.28;4995267;28;20025;-91
2023/12/15 02:02:37;;;;;;;17.85;9.82;;;;;;;5.51;100.00;102745.13;5005259;28;20134;-91
2023/12/15 02:05:04;;;;;;;19.33;10.13;;;;;;;5.52;100.00;102746.03;5001207;28;20029;-91
2023/12/15 02:07:29;;;;;;;17.80;10.10;;;;;;;5.54;100.00;102752.97;5023743;28;20030;-91
2023/12/15 02:09:55;;;;;;;18.60;10.38;;;;;;;5.55;100.00;102757.28;5015097;28;20031;-91
2023/12/15 02:12:21;;;;;;;20.88;10.73;;;;;;;5.54;100.00;102754.69;4990411;28;20033;-93
2023/12/15 02:14:46;;;;;;;19.98;10.65;;;;;;;5.56;100.00;102747.84;5015874;28;20388;-92
2023/12/15 02:17:12;;;;;;;20.10;10.73;;;;;;;5.57;100.00;102755.63;5004046;28;20033;-92
2023/12/15 02:19:38;;;;;;;18.15;10.18;;;;;;;5.57;100.00;102749.59;5021954;28;20026;-89
2023/12/15 02:22:03;;;;;;;19.83;11.18;;;;;;;5.59;100.00;102755.66;5013007;28;20023;-89
2023/12/15 02:24:29;;;;;;;19.23;10.75;;;;;;;5.58;100.00;102751.34;5009044;28;20029;-91
2023/12/15 02:26:55;;;;;;;18.52;10.73;;;;;;;5.59;100.00;102758.25;5013066;28;20033;-90
2023/12/15 02:29:20;;;;;;;19.20;10.68;;;;;;;5.60;100.00;102765.16;5002582;28;20026;-91
2023/12/15 02:31:46;;;;;;;17.98;10.35;;;;;;;5.61;100.00;102774.66;5013570;28;20022;-89
2023/12/15 02:34:11;;;;;;;22.35;10.80;;;;;;;5.61;100.00;102778.13;5017693;28;20078;-90
2023/12/15 02:36:36;;;;;;;21.40;10.75;;;;;;;5.62;100.00;102779.88;5014527;28;20033;-92
2023/12/15 02:39:05;;;;;;;18.55;9.88;;;;;;;5.61;100.00;102784.97;5011447;28;20437;-91
2023/12/15 02:41:31;;;;;;;17.98;10.35;;;;;;;5.62;100.00;102786.72;5014888;28;20049;-91
2023/12/15 02:43:56;;;;;;;19.85;10.68;;;;;;;5.63;100.00;102796.22;4999643;28;20022;-91
2023/12/15 02:46:22;;;;;;;18.40;10.30;;;;;;;5.62;100.00;102800.53;5016639;28;20026;-90
2023/12/15 02:48:47;;;;;;;19.13;10.27;;;;;;;5.62;100.00;102800.53;5023126;28;20026;-90
2023/12/15 02:51:27;;;;;;;20.70;10.48;;;;;;;5.64;100.00;102797.13;5019448;28;20034;-90
2023/12/15 02:53:52;;;;;;;21.13;10.65;;;;;;;5.64;100.00;102804.88;5016511;28;20057;-91
2023/12/15 02:56:18;;;;;;;22.52;11.38;;;;;;;5.64;100.00;102804.88;5017257;28;20057;-91
2023/12/15 02:58:43;;;;;;;18.95;10.43;;;;;;;5.61;100.00;102803.06;5016515;28;20057;-91
2023/12/15 03:01:08;;;;;;;20.70;10.77;;;;;;;5.61;100.00;102811.69;5024573;28;20108;-91
2023/12/15 03:03:34;;;;;;;18.42;10.05;;;;;;;5.62;100.00;102813.44;5027139;28;20350;-92
2023/12/15 03:05:59;;;;;;;19.73;10.57;;;;;;;5.63;100.00;102819.47;5006013;28;20066;-90
2023/12/15 03:08:27;;;;;;;18.65;10.10;;;;;;;5.64;100.00;102817.78;5001199;28;20037;-91
2023/12/15 03:10:55;;;;;;;18.90;9.85;;;;;;;5.64;100.00;102818.63;4999886;28;20026;-90
2023/12/15 03:13:20;;;;;;;21.50;10.77;;;;;;;5.65;100.00;102819.50;5008537;28;20033;-91
2023/12/15 03:15:45;;;;;;;20.15;10.38;;;;;;;5.66;100.00;102816.97;4998483;28;20101;-90
2023/12/15 03:18:11;;;;;;;20.42;10.63;;;;;;;5.67;100.00;102828.16;5003505;28;20026;-91
2023/12/15 03:20:36;;;;;;;20.25;11.13;;;;;;;5.67;100.00;102828.16;5004424;28;20036;-92
2023/12/15 03:23:01;;;;;;;20.58;11.00;;;;;;;5.68;100.00;102835.06;5001718;28;20041;-91
2023/12/15 03:25:27;;;;;;;19.35;10.35;;;;;;;5.69;100.00;102836.84;5008697;28;20101;-91
2023/12/15 03:27:52;;;;;;;22.52;11.15;;;;;;;5.70;100.00;102848.91;5002472;28;20034;-90
2023/12/15 03:30:17;;;;;;;19.95;10.73;;;;;;;5.71;100.00;102842.91;4987420;28;20385;-91
2023/12/15 03:32:43;;;;;;;20.42;10.60;;;;;;;5.70;100.00;102841.16;4985376;28;20473;-91
2023/12/15 03:35:08;;;;;;;21.38;11.52;;;;;;;5.72;100.00;102849.84;5004313;28;20492;-92
2023/12/15 03:37:33;;;;;;;21.83;11.63;;;;;;;5.72;100.00;102857.56;5002435;28;20038;-92
2023/12/15 03:39:59;;;;;;;21.38;11.50;;;;;;;5.73;100.00;102864.50;5002733;28;20045;-91
2023/12/15 03:42:24;;;;;;;22.67;11.18;;;;;;;5.73;100.00;102864.50;5004085;28;20032;-91
2023/12/15 03:44:49;;;;;;;19.50;10.88;;;;;;;5.75;100.00;102868.00;5003079;28;20036;-92
2023/12/15 03:47:15;;;;;;;20.30;11.02;;;;;;;5.76;100.00;102867.16;5004285;28;20029;-92
2023/12/15 03:49:40;;;;;;;22.95;11.45;;;;;;;5.76;100.00;102872.34;4987514;28;20018;-92
2023/12/15 03:52:05;;;;;;;23.65;11.13;;;;;;;5.77;100.00;102872.34;5006871;28;20025;-91
2023/12/15 03:54:31;;;;;;;23.48;11.48;;;;;;;5.80;100.00;102873.28;5004918;28;20037;-91
2023/12/15 03:56:57;;;;;;;23.65;11.48;;;;;;;5.81;100.00;102878.47;5004172;28;20063;-91
2023/12/15 03:59:23;;;;;;;26.48;11.57;;;;;;;5.80;100.00;102876.75;4993426;28;20040;-91
2023/12/15 04:01:48;;;;;;;27.15;12.45;;;;;;;5.81;100.00;102872.44;4997204;28;20033;-92
2023/12/15 04:04:14;;;;;;;23.17;11.65;;;;;;;5.82;100.00;102880.22;4996083;28;20084;-91
2023/12/15 04:06:39;;;;;;;28.30;11.82;;;;;;;5.83;100.00;102886.28;5004591;28;20038;-91
2023/12/15 04:09:04;;;;;;;24.33;11.90;;;;;;;5.83;100.00;102876.81;4996210;28;20035;-91
2023/12/15 04:11:30;;;;;;;27.02;11.90;;;;;;;5.84;100.00;102878.56;4995240;28;20030;-91
2023/12/15 04:13:55;;;;;;;25.70;12.05;;;;;;;5.85;100.00;102885.47;4999237;28;20477;-91
2023/12/15 04:16:20;;;;;;;25.35;12.95;;;;;;;5.86;100.00;102888.97;5001312;28;20064;-91
2023/12/15 04:18:46;;;;;;;28.35;13.05;;;;;;;5.87;100.00;102893.28;5001758;28;20029;-91
2023/12/15 04:21:11;;;;;;;26.52;12.20;;;;;;;5.87;100.00;102894.16;5001452;28;20451;-92
2023/12/15 04:23:36;;;;;;;27.50;12.38;;;;;;;5.88;100.00;102900.22;5000035;28;20044;-90
2023/12/15 04:26:02;;;;;;;26.98;12.13;;;;;;;5.89;100.00;102908.00;4999391;28;20394;-92
2023/12/15 04:28:27;;;;;;;29.90;12.93;;;;;;;5.89;100.00;102910.56;5001948;28;20493;-90
2023/12/15 04:31:14;;;;;;;27.77;12.45;;;;;;;5.90;100.00;102909.75;4981663;28;20029;-92
2023/12/15 04:33:40;;;;;;;26.42;12.23;;;;;;;5.91;100.00;102900.25;4998852;28;20029;-91
2023/12/15 04:36:07;;;;;;;29.13;12.63;;;;;;;5.92;100.00;102900.31;4993339;28;20038;-91
2023/12/15 04:38:33;;;;;;;27.52;12.50;;;;;;;5.92;100.00;102913.25;4984518;28;20034;-91
2023/12/15 04:40:58;;;;;;;31.00;13.32;;;;;;;5.92;100.00;102913.25;4996603;28;20105;-91
2023/12/15 04:43:24;;;;;;;28.35;12.50;;;;;;;5.94;100.00;102926.19;5003488;28;20034;-91
2023/12/15 04:45:49;;;;;;;27.35;12.77;;;;;;;5.93;100.00;102925.31;4997092;28;20064;-91
2023/12/15 04:48:14;;;;;;;27.65;12.75;;;;;;;5.96;100.00;102926.25;5001769;28;20029;-91
2023/12/15 04:50:39;;;;;;;28.40;13.05;;;;;;;5.94;100.00;102921.03;4998871;28;20029;-90
2023/12/15 04:53:05;;;;;;;29.60;12.60;;;;;;;5.95;100.00;102921.91;5001890;28;20034;-91
2023/12/15 04:55:31;;;;;;;30.85;13.73;;;;;;;5.96;100.00;102936.59;4997632;28;20030;-91
2023/12/15 04:57:57;;;;;;;29.27;13.65;;;;;;;5.97;100.00;102930.59;4996084;28;20030;-92
2023/12/15 05:00:22;;;;;;;32.43;14.00;;;;;;;5.97;100.00;102930.59;5000185;28;20109;-90
2023/12/15 05:02:48;;;;;;;30.48;12.88;;;;;;;5.98;100.00;102933.19;4979941;28;20436;-91
2023/12/15 05:05:13;;;;;;;29.27;13.15;;;;;;;5.97;100.00;102930.59;4978056;28;20030;-92
2023/12/15 05:07:38;;;;;;;32.40;13.77;;;;;;;5.98;100.00;102922.00;5017337;28;20029;-92
2023/12/15 05:10:04;;;;;;;31.92;13.32;;;;;;;5.98;100.00;102919.41;4997225;28;20034;-92
2023/12/15 05:12:34;;;;;;;32.22;13.38;;;;;;;5.98;100.00;102924.59;5019532;28;20032;-91
2023/12/15 05:15:00;;;;;;;35.03;14.15;;;;;;;5.97;100.00;102928.00;5000747;28;20481;-91
2023/12/15 05:17:25;;;;;;;31.67;13.85;;;;;;;5.97;100.00;102928.00;5003709;28;20057;-92
2023/12/15 05:19:50;;;;;;;33.47;13.75;;;;;;;5.97;100.00;102943.50;4994865;28;20026;-92
2023/12/15 05:22:15;;;;;;;30.05;13.25;;;;;;;5.98;100.00;102951.28;5004906;28;20189;-91
2023/12/15 05:24:41;;;;;;;29.52;13.38;;;;;;;6.00;100.00;102947.06;5012943;28;20105;-92
2023/12/15 05:27:08;;;;;;;28.92;12.88;;;;;;;6.02;100.00;102948.00;5003837;28;20109;-93
2023/12/15 05:29:33;;;;;;;29.15;12.90;;;;;;;6.05;100.00;102954.94;4994199;28;20059;-92
2023/12/15 05:31:59;;;;;;;28.27;12.80;;;;;;;6.05;100.00;102966.16;5016629;28;20476;-92
2023/12/15 05:34:24;;;;;;;30.83;14.02;;;;;;;6.07;100.00;102968.78;5010223;28;20033;-91
2023/12/15 05:36:49;;;;;;;32.53;13.82;;;;;;;6.08;100.00;102970.53;5018494;28;20030;-91
2023/12/15 05:39:15;;;;;;;33.05;13.85;;;;;;;6.09;100.00;102982.63;4996434;28;20259;-91
2023/12/15 05:41:41;;;;;;;27.40;13.10;;;;;;;6.11;100.00;102991.31;5014159;28;20038;-92
2023/12/15 05:44:07;;;;;;;30.20;12.85;;;;;;;6.14;100.00;102988.81;5020962;28;20057;-91
2023/12/15 05:46:33;;;;;;;31.17;13.75;;;;;;;6.15;100.00;102997.41;5014517;28;20052;-92
2023/12/15 05:48:59;;;;;;;31.60;13.55;;;;;;;6.15;100.00;102998.28;5016956;28;20095;-92
2023/12/15 05:51:24;;;;;;;31.00;13.45;;;;;;;6.16;100.00;102989.69;5014329;28;20042;-92
2023/12/15 05:53:49;;;;;;;32.55;14.02;;;;;;;6.17;100.00;103006.94;5011739;28;20079;-92
2023/12/15 05:56:15;;;;;;;32.60;13.48;;;;;;;6.18;100.00;102995.78;5012792;28;20041;-92
2023/12/15 05:58:40;;;;;;;33.45;14.07;;;;;;;6.19;100.00;102989.78;5019288;28;20053;-92
2023/12/15 06:01:05;;;;;;;36.90;14.55;;;;;;;6.19;100.00;102979.44;5012750;28;20075;-92
2023/12/15 06:03:31;;;;;;;35.65;14.30;;;;;;;6.20;100.00;102993.25;5016689;28;20389;-91
2023/12/15 06:05:57;;;;;;;38.15;15.23;;;;;;;6.20;100.00;102988.94;5014572;28;20488;-91
2023/12/15 06:08:22;;;;;;;34.08;15.00;;;;;;;6.21;100.00;102989.84;5013203;28;20220;-91
2023/12/15 06:10:49;;;;;;;36.33;14.05;;;;;;;6.21;100.00;102985.53;5011095;28;20108;-92
2023/12/15 06:13:14;;;;;;;34.53;14.95;;;;;;;6.22;100.00;102992.47;4992395;28;20033;-92
2023/12/15 06:15:39;;;;;;;33.63;14.85;;;;;;;6.22;100.00;102995.03;4993370;28;20064;-90
2023/12/15 06:18:05;;;;;;;34.58;14.55;;;;;;;6.22;100.00;103000.22;5018294;28;20037;-90
2023/12/15 06:20:31;;;;;;;33.67;14.70;;;;;;;6.25;100.00;102993.38;5013549;28;20374;-92
2023/12/15 06:22:57;;;;;;;31.83;14.43;;;;;;;6.27;100.00;103007.22;5010691;28;20397;-91
2023/12/15 06:25:23;;;;;;;34.65;14.68;;;;;;;6.27;100.00;102989.13;5009994;28;20030;-92
2023/12/15 06:27:48;;;;;;;33.60;15.45;;;;;;;6.28;100.00;103008.97;5025367;28;20015;-90
2023/12/15 06:30:14;;;;;;;37.78;15.10;;;;;;;6.28;100.00;103014.16;5018008;28;20022;-91
2023/12/15 06:32:39;;;;;;;38.55;15.20;;;;;;;6.28;100.00;103008.97;5021074;28;20566;-91
2023/12/15 06:35:05;;;;;;;37.97;14.85;;;;;;;6.30;100.00;103015.94;5005303;28;20017;-91
2023/12/15 06:37:30;;;;;;;37.42;16.33;;;;;;;6.29;100.00;103021.94;5016290;28;20037;-90
2023/12/15 06:39:56;;;;;;;39.15;16.20;;;;;;;6.30;100.00;103028.00;5023786;28;20158;-90
2023/12/15 06:42:21;;;;;;;37.90;16.50;;;;;;;6.31;100.00;103034.91;5018604;28;20401;-91
2023/12/15 06:44:47;;;;;;;39.72;15.48;;;;;;;6.30;100.00;103033.16;5018440;28;20036;-91
2023/12/15 06:47:13;;;;;;;35.60;15.05;;;;;;;6.30;100.00;103030.56;5014620;28;20021;-91
2023/12/15 06:49:39;;;;;;;38.28;16.13;;;;;;;6.29;100.00;103024.50;5023490;28;20025;-90
2023/12/15 06:52:05;;;;;;;34.97;15.57;;;;;;;6.31;100.00;103024.56;5018450;28;20040;-91
2023/12/15 06:54:30;;;;;;;38.80;16.40;;;;;;;6.32;100.00;103036.69;5006567;28;20025;-91
2023/12/15 06:56:55;;;;;;;44.58;16.70;;;;;;;6.31;100.00;103037.50;5015004;28;20041;-91
2023/12/15 06:59:21;;;;;;;43.50;17.35;;;;;;;6.31;100.00;103034.91;5008467;28;20028;-90
2023/12/15 07:01:46;;;;;;;36.88;16.42;;;;;;;6.31;100.00;103034.91;5013996;28;20052;-91
2023/12/15 07:04:11;;;;;;;40.90;17.30;;;;;;;6.33;100.00;103048.72;5028967;28;20026;-90
2023/12/15 07:06:37;;;;;;;39.80;16.38;;;;;;;6.32;100.00;103050.47;5010820;28;20502;-91
2023/12/15 07:09:02;;;;;;;38.40;16.70;;;;;;;6.31;100.00;103060.78;5024598;28;20030;-91
2023/12/15 07:11:28;;;;;;;36.35;16.65;;;;;;;6.32;100.00;103065.97;5016696;28;20038;-91
2023/12/15 07:13:53;;;;;;;41.17;17.27;;;;;;;6.32;100.00;103068.56;5001703;28;20029;-91
2023/12/15 07:16:18;;;;;;;40.80;16.70;;;;;;;6.33;100.00;103069.41;5005736;28;20045;-89
2023/12/15 07:18:45;;;;;;;39.67;17.30;;;;;;;6.34;100.00;103076.34;5011097;28;20059;-90
2023/12/15 07:21:11;;;;;;;38.05;15.73;;;;;;;6.36;100.00;103077.25;5021623;28;20591;-90
2023/12/15 07:23:36;;;;;;;37.78;17.17;;;;;;;6.36;100.00;103079.84;5018488;28;20022;-90
2023/12/15 07:26:02;;;;;;;38.15;17.23;;;;;;;6.36;100.00;103085.03;5002995;28;20444;-91
2023/12/15 07:28:27;;;;;;;43.05;17.77;;;;;;;6.36;100.00;103085.03;5013638;28;20451;-91
2023/12/15 07:30:53;;;;;;;39.55;18.13;;;;;;;6.36;100.00;103091.09;5009912;28;20026;-91
2023/12/15 07:33:18;;;;;;;43.05;16.88;;;;;;;6.36;100.00;103087.59;5016795;28;20428;-91
2023/12/15 07:35:43;;;;;;;43.97;17.90;;;;;;;6.37;100.00;103087.66;5014713;28;20026;-90
2023/12/15 07:38:09;;;;;;;42.78;18.23;;;;;;;6.36;100.00;103080.75;5014043;28;20025;-91
2023/12/15 07:40:35;;;;;;;40.30;17.45;;;;;;;6.36;100.00;103087.59;5009493;28;20036;-91
2023/12/15 07:43:00;;;;;;;42.17;19.10;;;;;;;6.37;100.00;103107.47;5005090;28;20319;-90
2023/12/15 07:45:25;;;;;;;42.95;18.17;;;;;;;6.37;100.00;103112.63;5017634;28;20381;-92
2023/12/15 07:47:53;;;;;;;38.65;16.50;;;;;;;6.37;100.00;103116.09;5023163;28;20028;-90
2023/12/15 07:50:19;;;;;;;42.17;17.25;;;;;;;6.38;100.00;103104.03;4996925;28;20026;-91
2023/12/15 07:52:45;;;;;;;42.05;17.52;;;;;;;6.38;100.00;103099.75;5027071;28;20079;-90
2023/12/15 07:55:11;;;;;;;38.55;17.20;;;;;;;6.39;100.00;103110.97;4993520;28;20377;-92
2023/12/15 07:57:36;;;;;;;44.88;19.02;;;;;;;6.42;100.00;103117.91;5017005;28;20097;-92
2023/12/15 08:00:05;;;;;;;44.00;17.85;;;;;;;6.41;100.00;103124.81;5021566;28;20105;-91
2023/12/15 08:02:31;;;;;;;40.42;17.55;;;;;;;6.43;100.00;103136.09;4990869;28;20025;-93
2023/12/15 08:04:57;;;;;;;38.25;17.45;;;;;;;6.45;100.00;103133.53;4998223;28;20704;-91
2023/12/15 08:07:22;;;;;;;42.65;17.67;;;;;;;6.46;100.00;103137.88;5020707;28;20037;-91
2023/12/15 08:09:48;;;;;;;45.03;17.95;;;;;;;6.47;100.00;103135.34;4994684;28;20032;-91
2023/12/15 08:12:13;;;;;;;45.53;19.13;;;;;;;6.48;100.00;103131.94;5017976;28;20037;-92
2023/12/15 08:14:39;;;;;;;48.38;19.00;;;;;;;6.50;100.00;103140.59;5001757;28;20045;-92
2023/12/15 08:17:04;;;;;;;38.85;17.35;;;;;;;6.50;100.00;103140.59;5005006;28;20109;-94
2023/12/15 08:19:31;;;;;;;38.78;17.27;;;;;;;6.52;100.00;103149.25;5015406;28;20029;-93
2023/12/15 08:21:57;;;;;;;41.22;18.05;;;;;;;6.51;100.00;103165.59;5025773;28;20077;-93
2023/12/15 08:24:22;;;;;;;43.95;18.10;;;;;;;6.54;100.00;103170.00;5007470;28;20037;-94
2023/12/15 08:26:47;;;;;;;43.97;18.02;;;;;;;6.56;100.00;103175.22;5018358;28;20033;-91
2023/12/15 08:29:12;;;;;;;44.03;17.98;;;;;;;6.57;100.00;103171.81;5002176;28;20058;-93
2023/12/15 08:31:38;;;;;;;40.05;18.27;;;;;;;6.59;100.00;103180.47;5025060;28;20025;-95
2023/12/15 08:34:03;;;;;;;41.33;17.95;;;;;;;6.60;100.00;103183.09;5006343;28;20032;-91
2023/12/15 08:36:28;;;;;;;39.00;17.27;;;;;;;6.62;100.00;103189.19;5015420;28;20121;-91
2023/12/15 08:38:54;;;;;;;41.80;17.45;;;;;;;6.63;100.00;103193.53;5019482;28;20037;-90
2023/12/15 08:41:19;;;;;;;41.88;17.80;;;;;;;6.64;100.00;103194.44;5013517;28;20054;-89
2023/12/15 08:43:44;;;;;;;41.22;17.40;;;;;;;6.65;100.00;103193.59;5011890;28;20026;-91
2023/12/15 08:46:10;;;;;;;41.58;17.90;;;;;;;6.66;100.00;103203.13;5015729;28;20035;-90
2023/12/15 08:48:35;;;;;;;39.95;16.80;;;;;;;6.68;100.00;103211.78;5018941;28;20105;-93
2023/12/15 08:51:00;;;;;;;40.50;16.80;;;;;;;6.70;100.00;103223.03;5018034;28;20114;-94
2023/12/15 08:53:26;;;;;;;43.60;17.98;;;;;;;6.70;100.00;103220.47;5024873;28;20033;-94
2023/12/15 08:55:51;;;;;;;40.15;16.95;;;;;;;6.73;100.00;103236.06;5022804;28;20274;-93
2023/12/15 08:58:16;;;;;;;43.47;17.15;;;;;;;6.77;100.00;103226.69;5030383;28;20053;-93
2023/12/15 09:00:42;;;;;;;40.42;16.77;;;;;;;6.78;100.00;103229.34;5009130;28;20103;-95
2023/12/15 09:03:08;;;;;;;40.22;16.38;;;;;;;6.81;100.00;103233.72;5003153;28;20468;-93
2023/12/15 09:05:34;;;;;;;41.35;15.93;;;;;;;6.83;100.00;103234.63;5019857;28;20128;-91
2023/12/15 09:08:00;;;;;;;38.75;17.33;;;;;;;6.86;100.00;103236.41;5027145;28;20104;-90
2023/12/15 09:10:32;;;;;;;39.83;16.83;;;;;;;6.86;100.00;103234.72;5002285;28;20038;-91
2023/12/15 09:12:57;;;;;;;40.80;16.45;;;;;;;6.89;100.00;103231.34;5015099;28;20099;-93
2023/12/15 09:15:23;;;;;;;41.50;16.88;;;;;;;6.91;100.00;103234.84;5020932;28;20430;-93
2023/12/15 09:17:48;;;;;;;43.33;18.42;;;;;;;6.92;100.00;103236.59;5001816;28;20361;-90
2023/12/15 09:20:13;;;;;;;44.42;18.15;;;;;;;6.93;100.00;103244.41;4999702;28;20416;-89
2023/12/15 09:22:42;;;;;;;41.05;17.75;;;;;;;6.93;100.00;103244.41;5008201;28;20057;-90
2023/12/15 09:25:08;;;;;;;42.85;18.10;;;;;;;6.94;100.00;103258.22;4992274;28;20026;-94
2023/12/15 09:27:33;;;;;;;42.78;17.23;;;;;;;6.96;100.00;103262.59;5026957;28;20034;-89
2023/12/15 09:29:59;;;;;;;46.40;18.08;;;;;;;6.96;100.00;103260.03;5013187;28;20060;-92
2023/12/15 09:32:25;;;;;;;40.85;17.23;;;;;;;6.99;100.00;103267.00;4996288;28;20033;-90
2023/12/15 09:34:50;;;;;;;43.80;18.77;;;;;;;7.01;100.00;103270.50;5016675;28;20488;-90
2023/12/15 09:37:15;;;;;;;42.65;17.77;;;;;;;7.02;100.00;103269.66;5013721;28;20473;-94
2023/12/15 09:39:41;;;;;;;45.30;18.13;;;;;;;7.05;100.00;103277.53;5015551;28;20025;-94
2023/12/15 09:42:06;;;;;;;41.97;18.60;;;;;;;7.07;100.00;103288.81;5017113;28;20028;-89
2023/12/15 09:44:31;;;;;;;41.88;18.17;;;;;;;7.09;100.00;103297.50;4995349;28;20030;-90
2023/12/15 09:46:58;;;;;;;42.45;18.27;;;;;;;7.10;100.00;103301.84;5022212;28;20018;-92
2023/12/15 09:49:25;;;;;;;50.30;18.92;;;;;;;7.10;100.00;103299.25;5019833;28;20057;-94
2023/12/15 09:51:50;;;;;;;46.92;19.45;;;;;;;7.13;100.00;103319.16;4999055;28;20108;-94
2023/12/15 09:54:17;;;;;;;43.92;18.63;;;;;;;7.13;100.00;103325.22;5028022;28;20441;-89
2023/12/15 09:56:42;;;;;;;43.22;18.40;;;;;;;7.14;100.00;103328.69;5013767;28;20022;-88
2023/12/15 09:59:08;;;;;;;42.92;17.63;;;;;;;7.16;100.00;103339.97;5019831;28;20034;-90
2023/12/15 10:01:34;;;;;;;42.20;17.55;;;;;;;7.19;100.00;103333.97;5018757;28;20034;-90
2023/12/15 10:03:59;;;;;;;42.65;17.65;;;;;;;7.21;100.00;103332.31;5023349;28;20068;-90
2023/12/15 10:06:25;;;;;;;43.20;16.90;;;;;;;7.23;100.00;103336.72;5019495;28;20061;-91
2023/12/15 10:08:51;;;;;;;42.15;17.27;;;;;;;7.23;100.00;103331.56;5002224;28;20600;-91
2023/12/15 10:11:16;;;;;;;37.70;16.17;;;;;;;7.27;100.00;103335.09;5017725;28;20573;-91
2023/12/15 10:13:42;;;;;;;41.22;17.10;;;;;;;7.29;100.00;103336.88;5016213;28;20265;-91
2023/12/15 10:16:09;;;;;;;37.90;16.92;;;;;;;7.30;100.00;103348.13;5017448;28;20443;-89
2023/12/15 10:18:34;;;;;;;38.45;16.83;;;;;;;7.31;100.00;103355.06;5025798;28;20030;-90
2023/12/15 10:21:00;;;;;;;38.38;16.33;;;;;;;7.31;100.00;103357.66;5034696;28;20040;-89
2023/12/15 10:23:29;;;;;;;37.90;16.33;;;;;;;7.32;100.00;103359.41;5034608;28;20680;-90
2023/12/15 10:25:58;;;;;;;40.90;16.83;;;;;;;7.32;100.00;103361.09;5020296;28;20033;-90
2023/12/15 10:28:23;;;;;;;37.92;15.57;;;;;;;7.35;100.00;103358.63;5022297;28;20118;-91
2023/12/15 10:30:50;;;;;;;37.42;15.65;;;;;;;7.35;100.00;103359.47;5003872;28;20116;-90
2023/12/15 10:33:17;;;;;;;37.38;16.17;;;;;;;7.38;100.00;103362.16;4997211;28;20084;-90
2023/12/15 10:35:50;;;;;;;36.38;14.93;;;;;;;7.39;100.00;103369.09;5021421;28;20065;-90
2023/12/15 10:38:15;;;;;;;41.35;15.68;;;;;;;7.41;100.00;103375.19;5025886;28;20025;-90
2023/12/15 10:40:44;;;;;;;40.25;15.45;;;;;;;7.42;100.00;103384.72;5014062;28;20036;-93
2023/12/15 10:43:11;;;;;;;39.58;16.58;;;;;;;7.43;100.00;103396.84;5019123;28;20022;-91
2023/12/15 10:45:37;;;;;;;34.28;15.15;;;;;;;7.45;100.00;103396.88;5021660;28;20030;-91
2023/12/15 10:48:03;;;;;;;38.58;15.43;;;;;;;7.44;100.00;103401.19;5023893;28;20033;-89
2023/12/15 10:50:29;;;;;;;37.28;14.70;;;;;;;7.47;100.00;103402.13;5023237;28;20029;-91
2023/12/15 10:52:56;;;;;;;34.88;14.93;;;;;;;7.45;100.00;103404.66;5009457;28;20033;-91
2023/12/15 10:55:25;;;;;;;36.47;14.75;;;;;;;7.48;100.00;103406.47;5015245;28;20524;-92
2023/12/15 10:57:50;;;;;;;32.42;14.63;;;;;;;7.51;100.00;103403.97;5002547;28;20059;-90
2023/12/15 11:00:19;;;;;;;37.55;14.73;;;;;;;7.53;100.00;103415.22;5001386;28;20061;-90
2023/12/15 11:02:46;;;;;;;32.15;13.88;;;;;;;7.57;100.00;103414.50;5018331;28;20033;-91